sensor_id;sensor_type;location;lat;lon;timestamp;P1;durP1;ratioP1;P2;durP2;ratioP2
13704;SDS011;6924;52.122;9.952;2023-03-24T00:02:08;1.53;;;1.30;;
13704;SDS011;6924;52.122;9.952;2023-03-24T00:04:35;1.60;;;1.30;;
13704;SDS011;6924;52.122;9.952;2023-03-24T00:07:06;1.43;;;1.23;;
13704;SDS011;6924;52.122;9.952;2023-03-24T00:09:33;2.17;;;1.10;;
13704;SDS011;6924;52.122;9.952;2023-03-24T00:12:01;2.83;;;2.00;;
13704;SDS011;6924;52.122;9.952;2023-03-24T00:14:28;2.73;;;1.83;;
13704;SDS011;6924;52.122;9.952;2023-03-24T00:16:55;2.93;;;1.40;;
13704;SDS011;6924;52.122;9.952;2023-03-24T00:19:22;1.80;;;1.23;;
13704;SDS011;6924;52.122;9.952;2023-03-24T00:21:49;3.63;;;1.50;;
13704;SDS011;6924;52.122;9.952;2023-03-24T00:24:19;3.13;;;1.97;;
13704;SDS011;6924;52.122;9.952;2023-03-24T00:26:46;2.67;;;1.30;;
13704;SDS011;6924;52.122;9.952;2023-03-24T00:29:17;2.13;;;1.47;;
13704;SDS011;6924;52.122;9.952;2023-03-24T00:31:44;1.70;;;1.23;;
13704;SDS011;6924;52.122;9.952;2023-03-24T00:34:10;1.70;;;1.60;;
13704;SDS011;6924;52.122;9.952;2023-03-24T00:36:37;1.60;;;1.50;;
13704;SDS011;6924;52.122;9.952;2023-03-24T00:39:04;4.00;;;1.63;;
13704;SDS011;6924;52.122;9.952;2023-03-24T00:41:31;3.43;;;1.57;;
13704;SDS011;6924;52.122;9.952;2023-03-24T00:43:57;1.80;;;1.70;;
13704;SDS011;6924;52.122;9.952;2023-03-24T00:46:29;1.90;;;1.60;;
13704;SDS011;6924;52.122;9.952;2023-03-24T00:48:58;2.27;;;1.60;;
13704;SDS011;6924;52.122;9.952;2023-03-24T00:51:30;2.27;;;1.30;;
13704;SDS011;6924;52.122;9.952;2023-03-24T00:53:58;2.47;;;1.60;;
13704;SDS011;6924;52.122;9.952;2023-03-24T00:56:26;2.60;;;1.87;;
13704;SDS011;6924;52.122;9.952;2023-03-24T00:58:53;2.43;;;2.23;;
13704;SDS011;6924;52.122;9.952;2023-03-24T01:01:22;2.40;;;1.83;;
13704;SDS011;6924;52.122;9.952;2023-03-24T01:03:51;3.00;;;1.80;;
13704;SDS011;6924;52.122;9.952;2023-03-24T01:06:18;1.90;;;1.80;;
13704;SDS011;6924;52.122;9.952;2023-03-24T01:08:46;1.70;;;1.60;;
13704;SDS011;6924;52.122;9.952;2023-03-24T01:11:13;2.80;;;2.37;;
13704;SDS011;6924;52.122;9.952;2023-03-24T01:13:40;2.23;;;2.00;;
13704;SDS011;6924;52.122;9.952;2023-03-24T01:16:07;2.10;;;2.00;;
13704;SDS011;6924;52.122;9.952;2023-03-24T01:18:34;4.13;;;2.00;;
13704;SDS011;6924;52.122;9.952;2023-03-24T01:21:06;2.13;;;1.93;;
13704;SDS011;6924;52.122;9.952;2023-03-24T01:23:33;2.30;;;1.97;;
13704;SDS011;6924;52.122;9.952;2023-03-24T01:26:03;3.00;;;2.33;;
13704;SDS011;6924;52.122;9.952;2023-03-24T01:28:30;8.03;;;2.47;;
13704;SDS011;6924;52.122;9.952;2023-03-24T01:30:57;2.17;;;1.80;;
13704;SDS011;6924;52.122;9.952;2023-03-24T01:33:23;2.47;;;2.27;;
13704;SDS011;6924;52.122;9.952;2023-03-24T01:35:49;2.60;;;2.30;;
13704;SDS011;6924;52.122;9.952;2023-03-24T01:38:17;2.53;;;1.80;;
13704;SDS011;6924;52.122;9.952;2023-03-24T01:40:45;2.53;;;2.17;;
13704;SDS011;6924;52.122;9.952;2023-03-24T01:43:15;2.37;;;1.80;;
13704;SDS011;6924;52.122;9.952;2023-03-24T01:45:50;1.80;;;1.70;;
13704;SDS011;6924;52.122;9.952;2023-03-24T01:48:25;2.10;;;1.90;;
13704;SDS011;6924;52.122;9.952;2023-03-24T01:50:56;1.93;;;1.83;;
13704;SDS011;6924;52.122;9.952;2023-03-24T01:53:27;2.47;;;2.00;;
13704;SDS011;6924;52.122;9.952;2023-03-24T01:55:56;2.97;;;1.90;;
13704;SDS011;6924;52.122;9.952;2023-03-24T01:58:23;2.20;;;2.10;;
13704;SDS011;6924;52.122;9.952;2023-03-24T02:00:55;1.93;;;1.83;;
13704;SDS011;6924;52.122;9.952;2023-03-24T02:03:23;2.73;;;2.27;;
13704;SDS011;6924;52.122;9.952;2023-03-24T02:05:54;2.70;;;2.20;;
13704;SDS011;6924;52.122;9.952;2023-03-24T02:08:23;2.00;;;1.90;;
13704;SDS011;6924;52.122;9.952;2023-03-24T02:10:57;2.20;;;2.00;;
13704;SDS011;6924;52.122;9.952;2023-03-24T02:13:25;3.10;;;2.47;;
13704;SDS011;6924;52.122;9.952;2023-03-24T02:15:54;2.53;;;2.33;;
13704;SDS011;6924;52.122;9.952;2023-03-24T02:18:34;2.47;;;2.27;;
13704;SDS011;6924;52.122;9.952;2023-03-24T02:27:10;3.37;;;2.57;;
13704;SDS011;6924;52.122;9.952;2023-03-24T02:42:19;2.40;;;2.20;;
13704;SDS011;6924;52.122;9.952;2023-03-24T02:44:56;2.73;;;2.53;;
13704;SDS011;6924;52.122;9.952;2023-03-24T02:47:34;3.03;;;2.33;;
13704;SDS011;6924;52.122;9.952;2023-03-24T02:50:11;4.53;;;2.50;;
13704;SDS011;6924;52.122;9.952;2023-03-24T02:52:44;2.93;;;2.70;;
13704;SDS011;6924;52.122;9.952;2023-03-24T02:55:15;2.97;;;2.70;;
13704;SDS011;6924;52.122;9.952;2023-03-24T02:57:47;2.70;;;2.37;;
13704;SDS011;6924;52.122;9.952;2023-03-24T03:00:18;2.60;;;2.40;;
13704;SDS011;6924;52.122;9.952;2023-03-24T03:02:51;2.60;;;2.40;;
13704;SDS011;6924;52.122;9.952;2023-03-24T03:05:22;2.87;;;2.67;;
13704;SDS011;6924;52.122;9.952;2023-03-24T03:07:53;2.33;;;2.13;;
13704;SDS011;6924;52.122;9.952;2023-03-24T03:10:27;2.30;;;2.07;;
13704;SDS011;6924;52.122;9.952;2023-03-24T03:12:57;3.10;;;2.20;;
13704;SDS011;6924;52.122;9.952;2023-03-24T03:15:28;2.90;;;2.50;;
13704;SDS011;6924;52.122;9.952;2023-03-24T03:17:58;2.10;;;2.00;;
13704;SDS011;6924;52.122;9.952;2023-03-24T03:20:32;3.03;;;2.50;;
13704;SDS011;6924;52.122;9.952;2023-03-24T03:23:04;3.00;;;2.80;;
13704;SDS011;6924;52.122;9.952;2023-03-24T03:25:37;2.77;;;2.53;;
13704;SDS011;6924;52.122;9.952;2023-03-24T03:28:10;2.93;;;2.60;;
13704;SDS011;6924;52.122;9.952;2023-03-24T03:30:42;3.23;;;3.03;;
13704;SDS011;6924;52.122;9.952;2023-03-24T03:33:14;3.07;;;2.73;;
13704;SDS011;6924;52.122;9.952;2023-03-24T03:35:49;3.57;;;3.27;;
13704;SDS011;6924;52.122;9.952;2023-03-24T03:38:19;2.67;;;2.47;;
13704;SDS011;6924;52.122;9.952;2023-03-24T03:40:51;3.00;;;2.80;;
13704;SDS011;6924;52.122;9.952;2023-03-24T03:43:20;3.33;;;2.97;;
13704;SDS011;6924;52.122;9.952;2023-03-24T03:45:48;3.43;;;3.10;;
13704;SDS011;6924;52.122;9.952;2023-03-24T03:48:15;3.03;;;2.80;;
13704;SDS011;6924;52.122;9.952;2023-03-24T03:50:42;3.63;;;2.77;;
13704;SDS011;6924;52.122;9.952;2023-03-24T03:53:08;4.00;;;3.20;;
13704;SDS011;6924;52.122;9.952;2023-03-24T03:55:36;3.27;;;3.00;;
13704;SDS011;6924;52.122;9.952;2023-03-24T03:58:05;3.60;;;3.13;;
13704;SDS011;6924;52.122;9.952;2023-03-24T04:00:32;4.30;;;3.50;;
13704;SDS011;6924;52.122;9.952;2023-03-24T04:03:14;3.77;;;3.47;;
13704;SDS011;6924;52.122;9.952;2023-03-24T04:05:55;3.87;;;3.50;;
13704;SDS011;6924;52.122;9.952;2023-03-24T04:08:30;3.83;;;3.53;;
13704;SDS011;6924;52.122;9.952;2023-03-24T04:11:11;3.87;;;3.50;;
13704;SDS011;6924;52.122;9.952;2023-03-24T04:14:00;4.27;;;3.83;;
13704;SDS011;6924;52.122;9.952;2023-03-24T04:16:34;4.03;;;3.73;;
13704;SDS011;6924;52.122;9.952;2023-03-24T04:19:14;3.70;;;3.50;;
13704;SDS011;6924;52.122;9.952;2023-03-24T04:21:52;4.07;;;3.77;;
13704;SDS011;6924;52.122;9.952;2023-03-24T04:24:32;4.50;;;3.30;;
13704;SDS011;6924;52.122;9.952;2023-03-24T04:27:06;4.57;;;3.77;;
13704;SDS011;6924;52.122;9.952;2023-03-24T04:29:41;4.13;;;3.70;;
13704;SDS011;6924;52.122;9.952;2023-03-24T04:32:18;3.53;;;3.20;;
13704;SDS011;6924;52.122;9.952;2023-03-24T04:34:52;3.23;;;3.03;;
13704;SDS011;6924;52.122;9.952;2023-03-24T04:37:27;4.17;;;3.30;;
13704;SDS011;6924;52.122;9.952;2023-03-24T04:39:56;3.57;;;3.27;;
13704;SDS011;6924;52.122;9.952;2023-03-24T04:42:26;4.60;;;3.63;;
13704;SDS011;6924;52.122;9.952;2023-03-24T04:44:59;3.60;;;3.07;;
13704;SDS011;6924;52.122;9.952;2023-03-24T04:47:27;3.50;;;3.23;;
13704;SDS011;6924;52.122;9.952;2023-03-24T04:49:59;3.73;;;3.50;;
13704;SDS011;6924;52.122;9.952;2023-03-24T04:52:26;3.40;;;3.10;;
13704;SDS011;6924;52.122;9.952;2023-03-24T04:54:53;3.33;;;3.13;;
13704;SDS011;6924;52.122;9.952;2023-03-24T04:57:20;4.10;;;3.70;;
13704;SDS011;6924;52.122;9.952;2023-03-24T04:59:46;4.00;;;3.70;;
13704;SDS011;6924;52.122;9.952;2023-03-24T05:02:14;4.40;;;4.10;;
13704;SDS011;6924;52.122;9.952;2023-03-24T05:04:41;5.00;;;4.60;;
13704;SDS011;6924;52.122;9.952;2023-03-24T05:07:07;4.30;;;3.90;;
13704;SDS011;6924;52.122;9.952;2023-03-24T05:09:34;4.20;;;3.80;;
13704;SDS011;6924;52.122;9.952;2023-03-24T05:12:00;4.23;;;3.80;;
13704;SDS011;6924;52.122;9.952;2023-03-24T05:14:26;4.00;;;3.60;;
13704;SDS011;6924;52.122;9.952;2023-03-24T05:16:53;3.87;;;3.57;;
13704;SDS011;6924;52.122;9.952;2023-03-24T05:19:21;3.77;;;3.47;;
13704;SDS011;6924;52.122;9.952;2023-03-24T05:21:47;3.83;;;3.60;;
13704;SDS011;6924;52.122;9.952;2023-03-24T05:24:13;4.07;;;3.77;;
13704;SDS011;6924;52.122;9.952;2023-03-24T05:26:40;3.67;;;3.43;;
13704;SDS011;6924;52.122;9.952;2023-03-24T05:29:06;3.60;;;3.40;;
13704;SDS011;6924;52.122;9.952;2023-03-24T05:31:33;3.73;;;3.43;;
13704;SDS011;6924;52.122;9.952;2023-03-24T05:33:59;3.83;;;3.53;;
13704;SDS011;6924;52.122;9.952;2023-03-24T05:36:27;3.50;;;3.17;;
13704;SDS011;6924;52.122;9.952;2023-03-24T05:38:53;3.77;;;3.47;;
13704;SDS011;6924;52.122;9.952;2023-03-24T05:41:20;4.70;;;3.00;;
13704;SDS011;6924;52.122;9.952;2023-03-24T05:43:46;3.63;;;3.33;;
13704;SDS011;6924;52.122;9.952;2023-03-24T05:46:12;3.80;;;3.30;;
13704;SDS011;6924;52.122;9.952;2023-03-24T05:48:39;3.50;;;3.20;;
13704;SDS011;6924;52.122;9.952;2023-03-24T05:51:05;3.87;;;3.50;;
13704;SDS011;6924;52.122;9.952;2023-03-24T05:53:34;4.00;;;3.40;;
13704;SDS011;6924;52.122;9.952;2023-03-24T05:56:00;3.77;;;3.47;;
13704;SDS011;6924;52.122;9.952;2023-03-24T05:58:27;4.93;;;3.57;;
13704;SDS011;6924;52.122;9.952;2023-03-24T06:00:53;3.67;;;3.40;;
13704;SDS011;6924;52.122;9.952;2023-03-24T06:03:21;4.03;;;3.70;;
13704;SDS011;6924;52.122;9.952;2023-03-24T06:05:47;3.63;;;3.23;;
13704;SDS011;6924;52.122;9.952;2023-03-24T06:08:14;3.97;;;3.67;;
13704;SDS011;6924;52.122;9.952;2023-03-24T06:10:43;4.07;;;3.67;;
13704;SDS011;6924;52.122;9.952;2023-03-24T06:13:10;3.83;;;3.53;;
13704;SDS011;6924;52.122;9.952;2023-03-24T06:15:36;4.23;;;3.83;;
13704;SDS011;6924;52.122;9.952;2023-03-24T06:18:06;3.33;;;2.60;;
13704;SDS011;6924;52.122;9.952;2023-03-24T06:20:33;4.70;;;3.83;;
13704;SDS011;6924;52.122;9.952;2023-03-24T06:23:00;3.47;;;3.17;;
13704;SDS011;6924;52.122;9.952;2023-03-24T06:25:26;3.10;;;2.80;;
13704;SDS011;6924;52.122;9.952;2023-03-24T06:27:55;4.17;;;3.60;;
13704;SDS011;6924;52.122;9.952;2023-03-24T06:30:27;3.97;;;3.63;;
13704;SDS011;6924;52.122;9.952;2023-03-24T06:32:54;3.63;;;3.37;;
13704;SDS011;6924;52.122;9.952;2023-03-24T06:35:21;3.30;;;3.00;;
13704;SDS011;6924;52.122;9.952;2023-03-24T06:37:47;4.47;;;4.07;;
13704;SDS011;6924;52.122;9.952;2023-03-24T06:40:14;3.67;;;3.37;;
13704;SDS011;6924;52.122;9.952;2023-03-24T06:42:41;4.23;;;3.70;;
13704;SDS011;6924;52.122;9.952;2023-03-24T06:45:09;3.57;;;3.27;;
13704;SDS011;6924;52.122;9.952;2023-03-24T06:47:36;3.73;;;3.43;;
13704;SDS011;6924;52.122;9.952;2023-03-24T06:50:03;5.17;;;4.33;;
13704;SDS011;6924;52.122;9.952;2023-03-24T06:52:31;4.17;;;3.77;;
13704;SDS011;6924;52.122;9.952;2023-03-24T06:54:57;4.33;;;4.03;;
13704;SDS011;6924;52.122;9.952;2023-03-24T06:57:24;5.07;;;4.67;;
13704;SDS011;6924;52.122;9.952;2023-03-24T06:59:51;3.97;;;3.63;;
13704;SDS011;6924;52.122;9.952;2023-03-24T07:02:19;4.37;;;3.97;;
13704;SDS011;6924;52.122;9.952;2023-03-24T07:04:46;5.07;;;4.00;;
13704;SDS011;6924;52.122;9.952;2023-03-24T07:07:14;3.27;;;3.07;;
13704;SDS011;6924;52.122;9.952;2023-03-24T07:09:41;2.93;;;2.73;;
13704;SDS011;6924;52.122;9.952;2023-03-24T07:12:08;2.67;;;2.10;;
13704;SDS011;6924;52.122;9.952;2023-03-24T07:14:36;2.33;;;2.17;;
13704;SDS011;6924;52.122;9.952;2023-03-24T07:17:02;2.50;;;2.30;;
13704;SDS011;6924;52.122;9.952;2023-03-24T07:19:30;3.77;;;2.20;;
13704;SDS011;6924;52.122;9.952;2023-03-24T07:21:57;2.30;;;2.20;;
13704;SDS011;6924;52.122;9.952;2023-03-24T07:24:23;2.10;;;1.87;;
13704;SDS011;6924;52.122;9.952;2023-03-24T07:26:49;1.57;;;1.40;;
13704;SDS011;6924;52.122;9.952;2023-03-24T07:29:16;1.70;;;1.60;;
13704;SDS011;6924;52.122;9.952;2023-03-24T07:31:42;2.10;;;2.00;;
13704;SDS011;6924;52.122;9.952;2023-03-24T07:34:09;1.17;;;1.13;;
13704;SDS011;6924;52.122;9.952;2023-03-24T07:36:37;1.50;;;1.40;;
13704;SDS011;6924;52.122;9.952;2023-03-24T07:39:03;2.20;;;2.10;;
13704;SDS011;6924;52.122;9.952;2023-03-24T07:41:30;2.30;;;1.70;;
13704;SDS011;6924;52.122;9.952;2023-03-24T07:43:57;1.60;;;1.50;;
13704;SDS011;6924;52.122;9.952;2023-03-24T07:46:23;2.90;;;1.93;;
13704;SDS011;6924;52.122;9.952;2023-03-24T07:48:50;2.13;;;2.03;;
13704;SDS011;6924;52.122;9.952;2023-03-24T07:51:16;2.37;;;2.10;;
13704;SDS011;6924;52.122;9.952;2023-03-24T07:53:45;2.50;;;2.30;;
13704;SDS011;6924;52.122;9.952;2023-03-24T07:56:12;2.60;;;2.40;;
13704;SDS011;6924;52.122;9.952;2023-03-24T07:58:38;2.63;;;2.37;;
13704;SDS011;6924;52.122;9.952;2023-03-24T08:01:05;2.23;;;2.10;;
13704;SDS011;6924;52.122;9.952;2023-03-24T08:03:33;2.17;;;1.97;;
13704;SDS011;6924;52.122;9.952;2023-03-24T08:06:00;2.07;;;1.97;;
13704;SDS011;6924;52.122;9.952;2023-03-24T08:08:26;1.63;;;1.53;;
13704;SDS011;6924;52.122;9.952;2023-03-24T08:10:54;2.03;;;1.93;;
13704;SDS011;6924;52.122;9.952;2023-03-24T08:13:20;1.30;;;1.30;;
13704;SDS011;6924;52.122;9.952;2023-03-24T08:15:47;1.50;;;1.40;;
13704;SDS011;6924;52.122;9.952;2023-03-24T08:18:13;1.50;;;1.40;;
13704;SDS011;6924;52.122;9.952;2023-03-24T08:20:40;2.50;;;1.80;;
13704;SDS011;6924;52.122;9.952;2023-03-24T08:23:07;2.20;;;1.60;;
13704;SDS011;6924;52.122;9.952;2023-03-24T08:25:33;2.30;;;1.50;;
13704;SDS011;6924;52.122;9.952;2023-03-24T08:28:01;1.87;;;1.77;;
13704;SDS011;6924;52.122;9.952;2023-03-24T08:30:28;1.63;;;1.30;;
13704;SDS011;6924;52.122;9.952;2023-03-24T08:32:55;1.37;;;1.10;;
13704;SDS011;6924;52.122;9.952;2023-03-24T08:35:24;7.83;;;1.90;;
13704;SDS011;6924;52.122;9.952;2023-03-24T08:37:52;1.20;;;1.10;;
13704;SDS011;6924;52.122;9.952;2023-03-24T08:40:19;1.10;;;1.10;;
13704;SDS011;6924;52.122;9.952;2023-03-24T08:42:48;1.37;;;1.27;;
13704;SDS011;6924;52.122;9.952;2023-03-24T08:45:17;0.90;;;0.77;;
13704;SDS011;6924;52.122;9.952;2023-03-24T08:47:45;1.57;;;0.60;;
13704;SDS011;6924;52.122;9.952;2023-03-24T08:50:12;0.70;;;0.63;;
13704;SDS011;6924;52.122;9.952;2023-03-24T08:52:39;0.80;;;0.60;;
13704;SDS011;6924;52.122;9.952;2023-03-24T08:55:06;4.80;;;0.73;;
13704;SDS011;6924;52.122;9.952;2023-03-24T08:57:34;1.90;;;0.60;;
13704;SDS011;6924;52.122;9.952;2023-03-24T09:00:00;1.73;;;0.70;;
13704;SDS011;6924;52.122;9.952;2023-03-24T09:02:35;1.27;;;0.57;;
13704;SDS011;6924;52.122;9.952;2023-03-24T09:05:01;0.83;;;0.57;;
13704;SDS011;6924;52.122;9.952;2023-03-24T09:07:28;1.43;;;0.77;;
13704;SDS011;6924;52.122;9.952;2023-03-24T09:09:54;1.63;;;1.07;;
13704;SDS011;6924;52.122;9.952;2023-03-24T09:12:21;1.43;;;0.53;;
13704;SDS011;6924;52.122;9.952;2023-03-24T09:14:47;2.23;;;0.73;;
13704;SDS011;6924;52.122;9.952;2023-03-24T09:17:14;1.50;;;0.90;;
13704;SDS011;6924;52.122;9.952;2023-03-24T09:19:42;2.90;;;1.30;;
13704;SDS011;6924;52.122;9.952;2023-03-24T09:22:09;2.93;;;0.97;;
13704;SDS011;6924;52.122;9.952;2023-03-24T09:24:36;4.27;;;1.53;;
13704;SDS011;6924;52.122;9.952;2023-03-24T09:27:03;1.67;;;0.73;;
13704;SDS011;6924;52.122;9.952;2023-03-24T09:29:29;2.03;;;0.80;;
13704;SDS011;6924;52.122;9.952;2023-03-24T09:31:56;2.27;;;0.87;;
13704;SDS011;6924;52.122;9.952;2023-03-24T09:34:23;2.10;;;1.30;;
13704;SDS011;6924;52.122;9.952;2023-03-24T09:36:51;4.10;;;1.30;;
13704;SDS011;6924;52.122;9.952;2023-03-24T09:39:18;2.10;;;0.80;;
13704;SDS011;6924;52.122;9.952;2023-03-24T09:41:44;1.87;;;0.93;;
13704;SDS011;6924;52.122;9.952;2023-03-24T09:44:13;2.43;;;1.10;;
13704;SDS011;6924;52.122;9.952;2023-03-24T09:46:48;3.83;;;0.97;;
13704;SDS011;6924;52.122;9.952;2023-03-24T09:49:20;2.57;;;1.13;;
13704;SDS011;6924;52.122;9.952;2023-03-24T09:51:49;2.07;;;1.20;;
13704;SDS011;6924;52.122;9.952;2023-03-24T09:54:21;2.40;;;1.40;;
13704;SDS011;6924;52.122;9.952;2023-03-24T09:56:53;2.00;;;1.03;;
13704;SDS011;6924;52.122;9.952;2023-03-24T09:59:24;2.70;;;0.80;;
13704;SDS011;6924;52.122;9.952;2023-03-24T10:01:57;5.67;;;1.23;;
13704;SDS011;6924;52.122;9.952;2023-03-24T10:04:24;2.47;;;1.40;;
13704;SDS011;6924;52.122;9.952;2023-03-24T10:06:53;3.83;;;1.60;;
13704;SDS011;6924;52.122;9.952;2023-03-24T10:09:26;2.83;;;1.40;;
13704;SDS011;6924;52.122;9.952;2023-03-24T10:11:56;2.13;;;1.07;;
13704;SDS011;6924;52.122;9.952;2023-03-24T10:17:25;2.90;;;1.00;;
13704;SDS011;6924;52.122;9.952;2023-03-24T10:19:59;3.73;;;1.63;;
13704;SDS011;6924;52.122;9.952;2023-03-24T10:22:33;2.47;;;1.40;;
13704;SDS011;6924;52.122;9.952;2023-03-24T10:25:06;3.70;;;1.30;;
13704;SDS011;6924;52.122;9.952;2023-03-24T10:27:40;5.27;;;1.97;;
13704;SDS011;6924;52.122;9.952;2023-03-24T10:30:12;4.57;;;1.23;;
13704;SDS011;6924;52.122;9.952;2023-03-24T10:32:42;3.77;;;1.20;;
13704;SDS011;6924;52.122;9.952;2023-03-24T10:35:13;3.03;;;1.23;;
13704;SDS011;6924;52.122;9.952;2023-03-24T10:37:44;2.40;;;1.53;;
13704;SDS011;6924;52.122;9.952;2023-03-24T10:40:12;3.97;;;1.67;;
13704;SDS011;6924;52.122;9.952;2023-03-24T10:42:42;3.87;;;1.23;;
13704;SDS011;6924;52.122;9.952;2023-03-24T10:45:11;2.40;;;0.90;;
13704;SDS011;6924;52.122;9.952;2023-03-24T10:47:38;4.73;;;1.57;;
13704;SDS011;6924;52.122;9.952;2023-03-24T10:50:08;2.60;;;1.43;;
13704;SDS011;6924;52.122;9.952;2023-03-24T10:52:37;3.13;;;1.10;;
13704;SDS011;6924;52.122;9.952;2023-03-24T10:55:12;4.73;;;1.43;;
13704;SDS011;6924;52.122;9.952;2023-03-24T10:57:42;4.07;;;1.20;;
13704;SDS011;6924;52.122;9.952;2023-03-24T11:00:14;2.93;;;1.30;;
13704;SDS011;6924;52.122;9.952;2023-03-24T11:02:52;5.87;;;1.57;;
13704;SDS011;6924;52.122;9.952;2023-03-24T11:05:21;4.90;;;1.60;;
13704;SDS011;6924;52.122;9.952;2023-03-24T11:07:54;5.93;;;1.57;;
13704;SDS011;6924;52.122;9.952;2023-03-24T11:10:27;1.47;;;1.27;;
13704;SDS011;6924;52.122;9.952;2023-03-24T11:13:00;5.40;;;1.37;;
13704;SDS011;6924;52.122;9.952;2023-03-24T11:15:29;4.30;;;1.83;;
13704;SDS011;6924;52.122;9.952;2023-03-24T11:17:57;4.57;;;1.87;;
13704;SDS011;6924;52.122;9.952;2023-03-24T11:20:27;2.53;;;1.30;;
13704;SDS011;6924;52.122;9.952;2023-03-24T11:22:57;3.77;;;1.43;;
13704;SDS011;6924;52.122;9.952;2023-03-24T11:25:28;1.27;;;1.17;;
13704;SDS011;6924;52.122;9.952;2023-03-24T11:27:57;3.07;;;1.30;;
13704;SDS011;6924;52.122;9.952;2023-03-24T11:30:26;4.67;;;1.40;;
13704;SDS011;6924;52.122;9.952;2023-03-24T11:32:56;2.53;;;1.43;;
13704;SDS011;6924;52.122;9.952;2023-03-24T11:35:23;10.43;;;1.90;;
13704;SDS011;6924;52.122;9.952;2023-03-24T11:37:50;3.80;;;1.43;;
13704;SDS011;6924;52.122;9.952;2023-03-24T11:40:18;3.90;;;1.97;;
13704;SDS011;6924;52.122;9.952;2023-03-24T11:42:49;7.60;;;2.57;;
13704;SDS011;6924;52.122;9.952;2023-03-24T11:45:20;2.27;;;1.63;;
13704;SDS011;6924;52.122;9.952;2023-03-24T11:47:51;2.60;;;1.80;;
13704;SDS011;6924;52.122;9.952;2023-03-24T11:50:23;3.87;;;1.67;;
13704;SDS011;6924;52.122;9.952;2023-03-24T11:52:53;2.50;;;1.47;;
13704;SDS011;6924;52.122;9.952;2023-03-24T11:55:28;3.73;;;1.47;;
13704;SDS011;6924;52.122;9.952;2023-03-24T11:58:02;4.63;;;1.87;;
13704;SDS011;6924;52.122;9.952;2023-03-24T12:00:36;5.37;;;1.77;;
13704;SDS011;6924;52.122;9.952;2023-03-24T12:06:01;2.60;;;1.50;;
13704;SDS011;6924;52.122;9.952;2023-03-24T12:08:43;5.10;;;1.83;;
13704;SDS011;6924;52.122;9.952;2023-03-24T12:11:21;3.03;;;2.23;;
13704;SDS011;6924;52.122;9.952;2023-03-24T12:13:59;4.53;;;1.97;;
13704;SDS011;6924;52.122;9.952;2023-03-24T12:16:36;4.60;;;2.53;;
13704;SDS011;6924;52.122;9.952;2023-03-24T12:22:16;3.83;;;2.10;;
13704;SDS011;6924;52.122;9.952;2023-03-24T12:24:55;2.73;;;1.97;;
13704;SDS011;6924;52.122;9.952;2023-03-24T12:27:35;3.00;;;2.00;;
13704;SDS011;6924;52.122;9.952;2023-03-24T12:30:09;5.43;;;2.13;;
13704;SDS011;6924;52.122;9.952;2023-03-24T12:32:49;2.73;;;1.97;;
13704;SDS011;6924;52.122;9.952;2023-03-24T12:35:27;2.63;;;1.60;;
13704;SDS011;6924;52.122;9.952;2023-03-24T12:38:06;2.43;;;1.77;;
13704;SDS011;6924;52.122;9.952;2023-03-24T12:40:46;2.27;;;1.23;;
13704;SDS011;6924;52.122;9.952;2023-03-24T12:43:24;2.60;;;1.50;;
13704;SDS011;6924;52.122;9.952;2023-03-24T12:45:58;2.20;;;1.90;;
13704;SDS011;6924;52.122;9.952;2023-03-24T12:48:42;5.17;;;2.17;;
13704;SDS011;6924;52.122;9.952;2023-03-24T12:51:18;1.90;;;1.70;;
13704;SDS011;6924;52.122;9.952;2023-03-24T12:53:59;3.70;;;2.03;;
13704;SDS011;6924;52.122;9.952;2023-03-24T12:56:38;2.23;;;1.70;;
13704;SDS011;6924;52.122;9.952;2023-03-24T12:59:09;4.23;;;2.03;;
13704;SDS011;6924;52.122;9.952;2023-03-24T13:01:41;3.57;;;1.60;;
13704;SDS011;6924;52.122;9.952;2023-03-24T13:04:10;2.13;;;1.50;;
13704;SDS011;6924;52.122;9.952;2023-03-24T13:06:43;3.13;;;1.60;;
13704;SDS011;6924;52.122;9.952;2023-03-24T13:09:16;2.97;;;1.70;;
13704;SDS011;6924;52.122;9.952;2023-03-24T13:11:53;2.57;;;1.50;;
13704;SDS011;6924;52.122;9.952;2023-03-24T13:14:24;2.73;;;1.70;;
13704;SDS011;6924;52.122;9.952;2023-03-24T13:16:59;3.07;;;1.80;;
13704;SDS011;6924;52.122;9.952;2023-03-24T13:19:29;4.03;;;1.70;;
13704;SDS011;6924;52.122;9.952;2023-03-24T13:21:58;3.53;;;1.80;;
13704;SDS011;6924;52.122;9.952;2023-03-24T13:24:25;5.63;;;1.63;;
13704;SDS011;6924;52.122;9.952;2023-03-24T13:26:54;3.87;;;1.73;;
13704;SDS011;6924;52.122;9.952;2023-03-24T13:29:28;4.17;;;1.60;;
13704;SDS011;6924;52.122;9.952;2023-03-24T13:32:10;3.53;;;1.50;;
13704;SDS011;6924;52.122;9.952;2023-03-24T13:34:44;3.23;;;1.40;;
13704;SDS011;6924;52.122;9.952;2023-03-24T13:37:14;2.63;;;1.67;;
13704;SDS011;6924;52.122;9.952;2023-03-24T13:39:46;3.60;;;1.60;;
13704;SDS011;6924;52.122;9.952;2023-03-24T13:42:25;2.83;;;1.60;;
13704;SDS011;6924;52.122;9.952;2023-03-24T13:44:55;1.83;;;1.70;;
13704;SDS011;6924;52.122;9.952;2023-03-24T13:47:25;2.63;;;1.17;;
13704;SDS011;6924;52.122;9.952;2023-03-24T13:49:54;2.77;;;1.33;;
13704;SDS011;6924;52.122;9.952;2023-03-24T13:52:26;3.00;;;1.90;;
13704;SDS011;6924;52.122;9.952;2023-03-24T13:54:57;5.13;;;2.10;;
13704;SDS011;6924;52.122;9.952;2023-03-24T13:57:25;2.87;;;1.70;;
13704;SDS011;6924;52.122;9.952;2023-03-24T13:59:57;2.03;;;1.37;;
13704;SDS011;6924;52.122;9.952;2023-03-24T14:02:46;3.57;;;1.57;;
13704;SDS011;6924;52.122;9.952;2023-03-24T14:05:33;4.87;;;1.60;;
13704;SDS011;6924;52.122;9.952;2023-03-24T14:08:11;3.30;;;1.60;;
13704;SDS011;6924;52.122;9.952;2023-03-24T14:10:40;2.10;;;1.27;;
13704;SDS011;6924;52.122;9.952;2023-03-24T14:13:19;4.07;;;2.40;;
13704;SDS011;6924;52.122;9.952;2023-03-24T14:16:33;3.40;;;1.80;;
13704;SDS011;6924;52.122;9.952;2023-03-24T14:19:26;4.77;;;2.03;;
13704;SDS011;6924;52.122;9.952;2023-03-24T14:21:57;2.67;;;1.47;;
13704;SDS011;6924;52.122;9.952;2023-03-24T14:24:29;2.30;;;1.63;;
13704;SDS011;6924;52.122;9.952;2023-03-24T14:26:56;4.23;;;1.60;;
13704;SDS011;6924;52.122;9.952;2023-03-24T14:29:39;2.97;;;1.30;;
13704;SDS011;6924;52.122;9.952;2023-03-24T14:32:13;8.27;;;1.87;;
13704;SDS011;6924;52.122;9.952;2023-03-24T14:34:50;2.77;;;1.43;;
13704;SDS011;6924;52.122;9.952;2023-03-24T14:37:18;2.63;;;1.60;;
13704;SDS011;6924;52.122;9.952;2023-03-24T14:39:46;3.57;;;1.47;;
13704;SDS011;6924;52.122;9.952;2023-03-24T14:45:39;3.97;;;1.30;;
13704;SDS011;6924;52.122;9.952;2023-03-24T14:48:28;5.70;;;1.80;;
13704;SDS011;6924;52.122;9.952;2023-03-24T14:51:02;2.40;;;2.00;;
13704;SDS011;6924;52.122;9.952;2023-03-24T14:53:36;2.90;;;1.50;;
13704;SDS011;6924;52.122;9.952;2023-03-24T14:56:05;2.47;;;1.00;;
13704;SDS011;6924;52.122;9.952;2023-03-24T14:58:37;3.77;;;1.47;;
13704;SDS011;6924;52.122;9.952;2023-03-24T15:01:08;3.57;;;1.13;;
13704;SDS011;6924;52.122;9.952;2023-03-24T15:03:37;1.97;;;1.33;;
13704;SDS011;6924;52.122;9.952;2023-03-24T15:06:15;3.57;;;1.53;;
13704;SDS011;6924;52.122;9.952;2023-03-24T15:12:04;2.63;;;1.70;;
13704;SDS011;6924;52.122;9.952;2023-03-24T15:14:30;3.17;;;1.70;;
13704;SDS011;6924;52.122;9.952;2023-03-24T15:17:02;5.87;;;1.83;;
13704;SDS011;6924;52.122;9.952;2023-03-24T15:19:30;3.37;;;1.30;;
13704;SDS011;6924;52.122;9.952;2023-03-24T15:22:00;2.30;;;0.90;;
13704;SDS011;6924;52.122;9.952;2023-03-24T15:24:29;2.00;;;1.30;;
13704;SDS011;6924;52.122;9.952;2023-03-24T15:27:16;5.07;;;1.20;;
13704;SDS011;6924;52.122;9.952;2023-03-24T15:29:48;2.83;;;1.30;;
13704;SDS011;6924;52.122;9.952;2023-03-24T15:32:20;2.10;;;1.07;;
13704;SDS011;6924;52.122;9.952;2023-03-24T15:34:49;2.00;;;0.90;;
13704;SDS011;6924;52.122;9.952;2023-03-24T15:37:20;2.63;;;0.97;;
13704;SDS011;6924;52.122;9.952;2023-03-24T15:39:48;3.80;;;1.00;;
13704;SDS011;6924;52.122;9.952;2023-03-24T15:42:16;1.93;;;0.83;;
13704;SDS011;6924;52.122;9.952;2023-03-24T15:44:45;1.83;;;0.60;;
13704;SDS011;6924;52.122;9.952;2023-03-24T15:47:12;2.10;;;1.00;;
13704;SDS011;6924;52.122;9.952;2023-03-24T15:49:45;1.53;;;0.80;;
13704;SDS011;6924;52.122;9.952;2023-03-24T15:52:29;3.67;;;0.80;;
13704;SDS011;6924;52.122;9.952;2023-03-24T15:54:59;1.57;;;0.90;;